createdAt,value
2023-08-04T00:02:11.369Z,26.83
2023-08-04T00:04:42.304Z,26.76
2023-08-04T00:07:13.141Z,26.74
2023-08-04T00:09:43.974Z,26.73
2023-08-04T00:12:15.024Z,26.72
2023-08-04T00:14:47.821Z,26.71
2023-08-04T00:17:19.212Z,26.67
2023-08-04T00:19:50.262Z,26.63
2023-08-04T00:22:21.334Z,26.60
2023-08-04T00:24:52.384Z,26.58
2023-08-04T00:27:23.537Z,26.58
2023-08-04T00:29:54.564Z,26.57
2023-08-04T00:32:26.009Z,26.56
2023-08-04T00:34:57.100Z,26.57
2023-08-04T00:37:28.176Z,26.55
2023-08-04T00:39:59.181Z,26.54
2023-08-04T00:42:30.065Z,26.53
2023-08-04T00:45:01.228Z,26.50
2023-08-04T00:47:36.916Z,26.49
2023-08-04T00:50:12.116Z,26.48
2023-08-04T00:52:45.881Z,26.47
2023-08-04T00:55:19.021Z,26.47
2023-08-04T00:57:51.215Z,26.46
2023-08-04T01:00:23.009Z,26.47
2023-08-04T01:02:54.239Z,26.47
2023-08-04T01:05:31.059Z,26.45
2023-08-04T01:08:11.948Z,26.44
2023-08-04T01:10:53.092Z,26.45
2023-08-04T01:13:26.745Z,26.47
2023-08-04T01:15:58.900Z,26.50
2023-08-04T01:18:29.926Z,26.53
2023-08-04T01:21:05.036Z,26.55
2023-08-04T01:23:36.247Z,26.54
2023-08-04T01:26:10.593Z,26.57
2023-08-04T01:28:42.517Z,26.60
2023-08-04T01:31:14.284Z,26.62
2023-08-04T01:33:47.100Z,26.62
2023-08-04T01:36:18.545Z,26.63
2023-08-04T01:38:49.521Z,26.64
2023-08-04T01:41:20.448Z,26.64
2023-08-04T01:43:51.413Z,26.65
2023-08-04T01:46:22.564Z,26.63
2023-08-04T01:48:53.562Z,26.60
2023-08-04T01:51:24.505Z,26.57
2023-08-04T01:53:55.630Z,26.53
2023-08-04T01:56:26.819Z,26.50
2023-08-04T01:58:57.716Z,26.47
2023-08-04T02:01:28.757Z,26.45
2023-08-04T02:04:00.235Z,26.43
2023-08-04T02:06:31.080Z,26.43
2023-08-04T02:09:02.090Z,26.43
2023-08-04T02:11:33.322Z,26.45
2023-08-04T02:14:04.227Z,26.47
2023-08-04T02:16:35.381Z,26.46
2023-08-04T02:19:07.666Z,26.45
2023-08-04T02:21:39.417Z,26.43
2023-08-04T02:24:10.661Z,26.41
2023-08-04T02:26:41.915Z,26.40
2023-08-04T02:29:12.896Z,26.38
2023-08-04T02:31:45.021Z,26.37
2023-08-04T02:34:16.694Z,26.37
2023-08-04T02:36:47.833Z,26.36
2023-08-04T02:39:18.868Z,26.36
2023-08-04T02:41:50.165Z,26.35
2023-08-04T02:44:21.474Z,26.35
2023-08-04T02:46:52.553Z,26.35
2023-08-04T02:49:23.921Z,26.36
2023-08-04T02:51:55.035Z,26.37
2023-08-04T02:54:26.446Z,26.36
2023-08-04T02:56:57.546Z,26.36
2023-08-04T02:59:28.930Z,26.36
2023-08-04T03:01:59.826Z,26.36
2023-08-04T03:04:30.760Z,26.37
2023-08-04T03:07:01.823Z,26.38
2023-08-04T03:09:33.175Z,26.36
2023-08-04T03:12:04.292Z,26.34
2023-08-04T03:14:35.233Z,26.34
2023-08-04T03:17:07.223Z,26.32
2023-08-04T03:19:38.322Z,26.30
2023-08-04T03:22:09.769Z,26.30
2023-08-04T03:24:40.756Z,26.30
2023-08-04T03:27:11.869Z,26.32
2023-08-04T03:29:42.685Z,26.32
2023-08-04T03:32:13.993Z,26.33
2023-08-04T03:34:45.011Z,26.33
2023-08-04T03:37:16.268Z,26.33
2023-08-04T03:39:47.220Z,26.34
2023-08-04T03:42:18.294Z,26.36
2023-08-04T03:44:49.385Z,26.36
2023-08-04T03:47:20.399Z,26.34
2023-08-04T03:49:51.432Z,26.33
2023-08-04T03:52:22.588Z,26.33
2023-08-04T03:54:53.850Z,26.32
2023-08-04T03:57:24.911Z,26.33
2023-08-04T03:59:56.954Z,26.34
2023-08-04T04:02:28.305Z,26.35
2023-08-04T04:04:59.471Z,26.37
2023-08-04T04:07:30.725Z,26.38
2023-08-04T04:10:01.692Z,26.37
2023-08-04T04:12:33.183Z,26.38
2023-08-04T04:15:05.377Z,26.39
2023-08-04T04:17:36.566Z,26.39
2023-08-04T04:20:09.540Z,26.37
2023-08-04T04:22:40.587Z,26.36
2023-08-04T04:25:12.269Z,26.38
2023-08-04T04:27:43.339Z,26.46
2023-08-04T04:30:15.100Z,26.62
2023-08-04T04:32:45.919Z,26.80
2023-08-04T04:35:17.552Z,26.94
2023-08-04T04:37:48.830Z,27.02
2023-08-04T04:40:19.972Z,27.12
2023-08-04T04:42:51.099Z,27.19
2023-08-04T04:45:22.321Z,27.19
2023-08-04T04:47:53.504Z,27.26
2023-08-04T04:50:24.609Z,27.32
2023-08-04T04:52:55.570Z,27.32
2023-08-04T04:55:26.646Z,27.37
2023-08-04T04:57:57.604Z,27.37
2023-08-04T05:00:28.594Z,27.30
2023-08-04T05:02:59.737Z,27.26
2023-08-04T05:05:32.488Z,27.25
2023-08-04T05:08:04.012Z,27.24
2023-08-04T05:10:35.723Z,27.26
2023-08-04T05:13:06.793Z,27.26
2023-08-04T05:15:38.157Z,27.27
2023-08-04T05:18:09.122Z,27.28
2023-08-04T05:20:40.546Z,27.32
2023-08-04T05:23:12.626Z,27.40
2023-08-04T05:25:44.252Z,27.44
2023-08-04T05:28:25.759Z,27.44
2023-08-04T05:30:59.873Z,27.45
2023-08-04T05:33:32.512Z,27.46
2023-08-04T05:36:04.319Z,27.48
2023-08-04T05:38:35.924Z,27.50
2023-08-04T05:41:07.324Z,27.50
2023-08-04T05:43:38.231Z,27.53
2023-08-04T05:46:13.815Z,27.54
2023-08-04T05:48:45.464Z,27.55
2023-08-04T05:51:18.532Z,27.58
2023-08-04T05:53:49.837Z,27.65
2023-08-04T05:56:21.088Z,27.68
2023-08-04T05:58:52.268Z,27.68
2023-08-04T06:01:23.415Z,27.71
2023-08-04T06:03:54.517Z,27.70
2023-08-04T06:06:25.862Z,27.72
2023-08-04T06:08:57.239Z,27.74
2023-08-04T06:11:28.386Z,27.76
2023-08-04T06:13:59.757Z,27.78
2023-08-04T06:16:30.972Z,27.77
2023-08-04T06:19:02.216Z,27.78
2023-08-04T06:21:37.127Z,27.79
2023-08-04T06:24:08.582Z,27.79
2023-08-04T06:26:39.876Z,27.80
2023-08-04T06:29:10.986Z,27.82
2023-08-04T06:31:42.241Z,27.88
2023-08-04T06:34:13.893Z,27.96
2023-08-04T06:36:48.444Z,28.03
2023-08-04T06:39:20.250Z,28.07
2023-08-04T06:41:51.518Z,28.11
2023-08-04T06:44:23.097Z,28.14
2023-08-04T06:46:53.993Z,28.12
2023-08-04T06:49:25.314Z,28.09
2023-08-04T06:51:56.430Z,28.02
2023-08-04T06:54:27.502Z,27.98
2023-08-04T06:56:58.438Z,27.99
2023-08-04T06:59:30.039Z,28.00
2023-08-04T07:02:01.180Z,28.00
2023-08-04T07:04:32.322Z,28.00
2023-08-04T07:07:03.556Z,28.00
2023-08-04T07:09:34.799Z,27.93
2023-08-04T07:12:07.576Z,27.83
2023-08-04T07:14:38.830Z,27.76
2023-08-04T07:17:09.840Z,27.68
2023-08-04T07:19:40.912Z,27.63
2023-08-04T07:22:12.172Z,27.61
2023-08-04T07:24:44.176Z,27.64
2023-08-04T07:27:15.207Z,27.64
2023-08-04T07:29:46.312Z,27.63
2023-08-04T07:32:17.501Z,27.60
2023-08-04T07:34:48.909Z,27.58
2023-08-04T07:37:20.161Z,27.54
2023-08-04T07:39:51.068Z,27.49
2023-08-04T07:42:22.330Z,27.46
2023-08-04T07:44:53.805Z,27.43
2023-08-04T07:47:24.969Z,27.38
2023-08-04T07:49:56.004Z,27.36
2023-08-04T07:52:26.884Z,27.36
2023-08-04T07:54:58.096Z,27.39
2023-08-04T07:57:29.484Z,27.42
2023-08-04T08:00:00.801Z,27.41
2023-08-04T08:02:32.105Z,27.38
2023-08-04T08:05:03.436Z,27.34
2023-08-04T08:07:44.786Z,27.35
2023-08-04T08:10:17.891Z,27.38
2023-08-04T08:12:49.664Z,27.39
2023-08-04T08:15:21.258Z,27.41
2023-08-04T08:17:52.310Z,27.46
2023-08-04T08:20:23.614Z,27.47
2023-08-04T08:22:54.683Z,27.45
2023-08-04T08:25:26.794Z,27.44
2023-08-04T08:27:57.788Z,27.44
2023-08-04T08:30:29.690Z,27.46
2023-08-04T08:33:00.968Z,27.47
2023-08-04T08:35:32.229Z,27.50
2023-08-04T08:38:03.756Z,27.54
2023-08-04T08:40:35.315Z,27.55
2023-08-04T08:43:06.930Z,27.53
2023-08-04T08:45:39.755Z,27.49
2023-08-04T08:48:13.010Z,27.45
2023-08-04T08:50:48.900Z,27.39
2023-08-04T08:53:26.034Z,27.34
2023-08-04T08:55:57.257Z,27.31
2023-08-04T08:58:30.787Z,27.29
2023-08-04T09:01:04.216Z,27.28
2023-08-04T09:03:38.276Z,27.25
2023-08-04T09:06:09.620Z,27.22
2023-08-04T09:08:41.006Z,27.19
2023-08-04T09:11:13.021Z,27.16
2023-08-04T09:13:46.917Z,27.13
2023-08-04T09:16:19.886Z,27.10
2023-08-04T09:18:51.050Z,27.12
2023-08-04T09:21:23.268Z,27.15
2023-08-04T09:23:54.556Z,27.20
2023-08-04T09:26:25.952Z,27.24
2023-08-04T09:29:08.794Z,27.27
2023-08-04T09:31:41.120Z,27.30
2023-08-04T09:34:13.076Z,27.34
2023-08-04T09:36:46.670Z,27.36
2023-08-04T09:39:19.505Z,27.35
2023-08-04T09:41:51.464Z,27.30
2023-08-04T09:44:22.746Z,27.26
2023-08-04T09:46:55.383Z,27.20
2023-08-04T09:49:26.915Z,27.15
2023-08-04T09:52:00.390Z,27.12
2023-08-04T09:54:31.903Z,27.09
2023-08-04T09:57:03.271Z,27.03
2023-08-04T09:59:34.882Z,26.98
2023-08-04T10:02:07.161Z,26.95
2023-08-04T10:04:38.988Z,26.94
2023-08-04T10:07:11.745Z,26.97
2023-08-04T10:09:43.435Z,27.00
2023-08-04T10:12:15.553Z,27.08
2023-08-04T10:14:46.925Z,27.22
2023-08-04T10:17:20.884Z,27.38
2023-08-04T10:20:02.242Z,27.56
2023-08-04T10:22:33.874Z,27.71
2023-08-04T10:25:17.081Z,27.79
2023-08-04T10:27:52.487Z,27.87
2023-08-04T10:30:35.713Z,27.96
2023-08-04T10:33:22.616Z,28.04
2023-08-04T10:36:09.390Z,28.13
2023-08-04T10:38:52.004Z,28.19
2023-08-04T10:41:23.138Z,28.21
2023-08-04T10:44:03.648Z,28.19
2023-08-04T10:46:36.072Z,28.17
2023-08-04T10:49:07.709Z,28.14
2023-08-04T10:51:38.956Z,28.14
2023-08-04T10:54:10.516Z,28.22
2023-08-04T10:56:41.884Z,28.36
2023-08-04T10:59:13.126Z,28.54
2023-08-04T11:01:44.279Z,28.69
2023-08-04T11:04:15.716Z,28.76
2023-08-04T11:06:47.432Z,28.81
2023-08-04T11:09:18.569Z,28.86
2023-08-04T11:11:50.421Z,28.87
2023-08-04T11:14:23.293Z,28.82
2023-08-04T11:16:56.888Z,28.81
2023-08-04T11:19:28.003Z,28.79
2023-08-04T11:21:59.188Z,28.78
2023-08-04T11:24:30.448Z,28.76
2023-08-04T11:27:01.832Z,28.75
2023-08-04T11:29:33.979Z,28.73
2023-08-04T11:32:09.707Z,28.71
2023-08-04T11:34:42.547Z,28.69
2023-08-04T11:37:13.836Z,28.66
2023-08-04T11:39:45.225Z,28.63
2023-08-04T11:42:17.136Z,28.60
2023-08-04T11:44:49.128Z,28.59
2023-08-04T11:47:20.744Z,28.58
2023-08-04T11:49:53.324Z,28.54
2023-08-04T11:52:24.801Z,28.47
2023-08-04T11:54:58.453Z,28.37
2023-08-04T11:57:30.251Z,28.30
2023-08-04T12:00:02.263Z,28.31
2023-08-04T12:02:59.372Z,28.35
2023-08-04T12:05:35.057Z,28.37
2023-08-04T12:08:14.629Z,28.39
2023-08-04T12:10:46.428Z,28.41
2023-08-04T12:13:37.162Z,28.42
2023-08-04T12:16:09.020Z,28.42
2023-08-04T12:18:41.926Z,28.40
2023-08-04T12:21:16.406Z,28.40
2023-08-04T12:23:51.675Z,28.41
2023-08-04T12:26:23.084Z,28.42
2023-08-04T12:28:54.874Z,28.41
2023-08-04T12:31:26.758Z,28.40
2023-08-04T12:33:58.529Z,28.35
2023-08-04T12:36:30.090Z,28.30
2023-08-04T12:39:01.820Z,28.22
2023-08-04T12:41:34.256Z,28.14
2023-08-04T12:44:06.640Z,28.10
2023-08-04T12:46:38.305Z,28.06
2023-08-04T12:49:09.660Z,28.02
2023-08-04T12:51:40.948Z,28.02
2023-08-04T12:54:12.109Z,28.05
2023-08-04T12:56:43.051Z,28.06
2023-08-04T12:59:14.094Z,28.07
2023-08-04T13:01:45.339Z,28.09
2023-08-04T13:04:16.802Z,28.10
2023-08-04T13:06:49.061Z,28.10
2023-08-04T13:09:20.481Z,28.09
2023-08-04T13:11:51.711Z,28.09
2023-08-04T13:14:22.732Z,28.09
2023-08-04T13:16:53.863Z,28.10
2023-08-04T13:19:25.396Z,28.13
2023-08-04T13:21:56.595Z,28.21
2023-08-04T13:24:27.709Z,28.31
2023-08-04T13:26:58.965Z,28.39
2023-08-04T13:29:30.278Z,28.41
2023-08-04T13:32:01.425Z,28.39
2023-08-04T13:34:32.749Z,28.38
2023-08-04T13:37:03.996Z,28.36
2023-08-04T13:39:35.761Z,28.37
2023-08-04T13:42:08.094Z,28.41
2023-08-04T13:44:39.345Z,28.44
2023-08-04T13:47:10.905Z,28.48
2023-08-04T13:49:42.471Z,28.54
2023-08-04T13:52:13.608Z,28.62
2023-08-04T13:54:45.068Z,28.66
2023-08-04T13:57:21.935Z,28.68
2023-08-04T14:00:02.596Z,28.73
2023-08-04T14:02:35.573Z,28.75
2023-08-04T14:05:08.809Z,28.72
2023-08-04T14:07:42.600Z,28.64
2023-08-04T14:10:14.532Z,28.57
2023-08-04T14:12:45.566Z,28.49
2023-08-04T14:15:16.915Z,28.36
2023-08-04T14:17:48.339Z,28.23
2023-08-04T14:20:23.225Z,28.16
2023-08-04T14:22:54.677Z,28.18
2023-08-04T14:25:25.563Z,28.25
2023-08-04T14:27:56.588Z,28.33
2023-08-04T14:30:27.452Z,28.39
2023-08-04T14:32:58.530Z,28.41
2023-08-04T14:35:29.650Z,28.43
2023-08-04T14:38:01.607Z,28.44
2023-08-04T14:40:32.787Z,28.47
2023-08-04T14:43:04.135Z,28.51
2023-08-04T14:45:37.939Z,28.50
2023-08-04T14:48:09.444Z,28.48
2023-08-04T14:50:43.128Z,28.46
2023-08-04T14:53:14.647Z,28.43
2023-08-04T14:55:45.719Z,28.43
2023-08-04T14:58:16.707Z,28.42
2023-08-04T15:00:48.089Z,28.45
2023-08-04T15:03:18.952Z,28.49
2023-08-04T15:05:50.050Z,28.59
2023-08-04T15:08:21.221Z,28.67
2023-08-04T15:10:52.460Z,28.73
2023-08-04T15:13:23.655Z,28.78
2023-08-04T15:15:55.204Z,28.79
2023-08-04T15:18:26.472Z,28.70
2023-08-04T15:20:57.438Z,28.63
2023-08-04T15:23:28.863Z,28.59
2023-08-04T15:26:00.935Z,28.59
2023-08-04T15:28:32.265Z,28.56
2023-08-04T15:31:09.020Z,28.42
2023-08-04T15:33:40.915Z,28.35
2023-08-04T15:36:12.639Z,28.27
2023-08-04T15:38:43.996Z,28.18
2023-08-04T15:41:15.191Z,28.13
2023-08-04T15:43:46.226Z,28.09
2023-08-04T15:46:17.500Z,28.03
2023-08-04T15:48:48.885Z,27.97
2023-08-04T15:51:20.123Z,27.91
2023-08-04T15:53:52.529Z,27.85
2023-08-04T15:56:23.539Z,27.82
2023-08-04T15:58:54.601Z,27.85
2023-08-04T16:01:25.892Z,27.85
2023-08-04T16:03:57.199Z,27.81
2023-08-04T16:06:28.311Z,27.76
2023-08-04T16:08:59.272Z,27.72
2023-08-04T16:11:30.902Z,27.67
2023-08-04T16:14:02.266Z,27.52
2023-08-04T16:16:33.434Z,27.40
2023-08-04T16:19:04.714Z,27.34
2023-08-04T16:21:36.029Z,27.29
2023-08-04T16:24:09.022Z,27.20
2023-08-04T16:26:41.050Z,27.14
2023-08-04T16:29:13.434Z,27.15
2023-08-04T16:31:45.200Z,27.15
2023-08-04T16:34:16.833Z,27.16
2023-08-04T16:36:48.565Z,27.15
2023-08-04T16:39:20.386Z,27.16
2023-08-04T16:41:51.848Z,27.17
2023-08-04T16:44:23.145Z,27.18
2023-08-04T16:46:54.445Z,27.18
2023-08-04T16:49:25.812Z,27.17
2023-08-04T16:51:57.399Z,27.18
2023-08-04T16:54:28.531Z,27.21
2023-08-04T16:56:59.759Z,27.23
2023-08-04T16:59:31.145Z,27.20
2023-08-04T17:02:02.270Z,27.14
2023-08-04T17:04:33.732Z,27.09
2023-08-04T17:07:05.158Z,27.00
2023-08-04T17:09:36.684Z,26.91
2023-08-04T17:12:09.618Z,26.82
2023-08-04T17:14:40.774Z,26.75
2023-08-04T17:17:11.858Z,26.73
2023-08-04T17:19:43.383Z,26.76
2023-08-04T17:22:15.432Z,26.77
2023-08-04T17:24:46.454Z,26.72
2023-08-04T17:27:17.650Z,26.65
2023-08-04T17:29:48.838Z,26.63
2023-08-04T17:32:20.210Z,26.65
2023-08-04T17:34:51.318Z,26.60
2023-08-04T17:37:22.975Z,26.52
2023-08-04T17:39:54.179Z,26.44
2023-08-04T17:42:25.345Z,26.37
2023-08-04T17:44:56.534Z,26.34
2023-08-04T17:47:27.923Z,26.25
2023-08-04T17:49:59.259Z,26.19
2023-08-04T17:52:30.469Z,26.14
2023-08-04T17:55:02.285Z,26.14
2023-08-04T17:57:33.589Z,26.14
2023-08-04T18:00:05.358Z,26.14
2023-08-04T18:02:44.243Z,26.13
2023-08-04T18:05:15.958Z,26.15
2023-08-04T18:07:47.023Z,26.13
2023-08-04T18:10:18.216Z,26.05
2023-08-04T18:12:49.610Z,25.98
2023-08-04T18:15:20.774Z,25.98
2023-08-04T18:17:51.755Z,25.95
2023-08-04T18:20:23.300Z,25.89
2023-08-04T18:22:54.174Z,25.87
2023-08-04T18:25:25.399Z,25.87
2023-08-04T18:27:56.838Z,25.88
2023-08-04T18:30:28.126Z,25.88
2023-08-04T18:32:59.337Z,25.88
2023-08-04T18:35:30.343Z,25.91
2023-08-04T18:38:01.655Z,25.99
2023-08-04T18:40:32.774Z,26.12
2023-08-04T18:43:03.868Z,26.26
2023-08-04T18:45:35.646Z,26.39
2023-08-04T18:48:07.618Z,26.45
2023-08-04T18:50:38.745Z,26.50
2023-08-04T18:53:09.833Z,26.53
2023-08-04T18:55:42.100Z,26.58
2023-08-04T18:58:13.509Z,26.64
2023-08-04T19:00:44.953Z,26.71
2023-08-04T19:03:16.159Z,26.78
2023-08-04T19:05:47.367Z,26.89
2023-08-04T19:08:18.645Z,26.95
2023-08-04T19:10:49.607Z,26.96
2023-08-04T19:13:20.628Z,26.96
2023-08-04T19:15:51.751Z,27.00
2023-08-04T19:18:23.116Z,27.09
2023-08-04T19:20:54.599Z,27.17
2023-08-04T19:23:25.610Z,27.22
2023-08-04T19:25:57.568Z,27.29
2023-08-04T19:28:28.916Z,27.33
2023-08-04T19:31:05.742Z,27.36
2023-08-04T19:33:37.025Z,27.39
2023-08-04T19:36:08.863Z,27.41
2023-08-04T19:38:40.157Z,27.40
2023-08-04T19:41:11.778Z,27.40
2023-08-04T19:43:43.585Z,27.39
2023-08-04T19:46:15.050Z,27.37
2023-08-04T19:48:48.047Z,27.36
2023-08-04T19:51:19.983Z,27.34
2023-08-04T19:53:51.566Z,27.29
2023-08-04T19:56:22.971Z,27.23
2023-08-04T19:58:55.073Z,27.20
2023-08-04T20:01:26.672Z,27.19
2023-08-04T20:03:57.758Z,27.21
2023-08-04T20:06:29.723Z,27.23
2023-08-04T20:09:01.469Z,27.22
2023-08-04T20:11:32.797Z,27.20
2023-08-04T20:14:04.841Z,27.21
2023-08-04T20:16:36.331Z,27.22
2023-08-04T20:19:07.904Z,27.22
2023-08-04T20:21:39.100Z,27.16
2023-08-04T20:24:10.967Z,27.05
2023-08-04T20:26:43.465Z,26.93
2023-08-04T20:29:14.861Z,26.83
2023-08-04T20:31:46.193Z,26.78
2023-08-04T20:34:17.802Z,26.75
2023-08-04T20:36:49.654Z,26.76
2023-08-04T20:39:21.222Z,26.72
2023-08-04T20:41:52.305Z,26.65
2023-08-04T20:44:23.450Z,26.60
2023-08-04T20:46:54.594Z,26.58
2023-08-04T20:49:25.746Z,26.58
2023-08-04T20:51:57.134Z,26.62
2023-08-04T20:54:28.788Z,26.63
2023-08-04T20:56:59.979Z,26.61
2023-08-04T20:59:31.934Z,26.66
2023-08-04T21:02:03.264Z,26.69
2023-08-04T21:04:35.027Z,26.62
2023-08-04T21:07:09.008Z,26.54
2023-08-04T21:09:40.813Z,26.41
2023-08-04T21:12:12.647Z,26.29
2023-08-04T21:14:43.596Z,26.18
2023-08-04T21:17:14.871Z,26.07
2023-08-04T21:19:46.156Z,26.00
2023-08-04T21:22:17.306Z,25.92
2023-08-04T21:24:48.477Z,25.88
2023-08-04T21:27:19.582Z,25.88
2023-08-04T21:29:51.828Z,25.88
2023-08-04T21:32:22.939Z,25.88
2023-08-04T21:34:54.275Z,25.87
2023-08-04T21:37:25.452Z,25.87
2023-08-04T21:39:57.330Z,25.88
2023-08-04T21:42:28.498Z,25.85
2023-08-04T21:45:00.036Z,25.82
2023-08-04T21:47:31.355Z,25.82
2023-08-04T21:50:03.173Z,25.83
2023-08-04T21:52:34.640Z,25.85
2023-08-04T21:55:06.650Z,25.87
2023-08-04T21:57:37.985Z,25.91
2023-08-04T22:00:14.395Z,25.91
2023-08-04T22:02:45.990Z,25.94
2023-08-04T22:05:18.238Z,25.94
2023-08-04T22:07:49.745Z,25.98
2023-08-04T22:10:21.157Z,25.97
2023-08-04T22:12:56.067Z,25.96
2023-08-04T22:15:27.156Z,25.85
2023-08-04T22:17:58.463Z,25.76
2023-08-04T22:20:29.669Z,25.71
2023-08-04T22:23:00.873Z,25.67
2023-08-04T22:25:31.982Z,25.62
2023-08-04T22:28:03.370Z,25.52
2023-08-04T22:30:35.381Z,25.44
2023-08-04T22:33:07.242Z,25.40
2023-08-04T22:35:38.430Z,25.41
2023-08-04T22:38:10.716Z,25.40
2023-08-04T22:40:41.609Z,25.39
2023-08-04T22:43:12.864Z,25.42
2023-08-04T22:45:46.264Z,25.47
2023-08-04T22:48:17.290Z,25.51
2023-08-04T22:50:48.391Z,25.54
2023-08-04T22:53:19.330Z,25.54
2023-08-04T22:55:50.486Z,25.55
2023-08-04T22:58:21.760Z,25.57
2023-08-04T23:00:53.700Z,25.56
2023-08-04T23:03:24.756Z,25.56
2023-08-04T23:05:56.873Z,25.58
2023-08-04T23:08:28.467Z,25.60
2023-08-04T23:11:00.214Z,25.62
2023-08-04T23:13:31.432Z,25.63
2023-08-04T23:16:02.324Z,25.65
2023-08-04T23:18:33.635Z,25.66
2023-08-04T23:21:04.863Z,25.66
2023-08-04T23:23:36.461Z,25.67
2023-08-04T23:26:07.680Z,25.69
2023-08-04T23:28:39.360Z,25.71
2023-08-04T23:31:10.654Z,25.73
2023-08-04T23:33:41.841Z,25.74
2023-08-04T23:36:13.176Z,25.76
2023-08-04T23:38:44.118Z,25.78
2023-08-04T23:41:15.066Z,25.78
2023-08-04T23:43:46.067Z,25.78
2023-08-04T23:46:17.354Z,25.77
2023-08-04T23:48:48.412Z,25.76
2023-08-04T23:51:19.423Z,25.76
2023-08-04T23:53:50.499Z,25.76
2023-08-04T23:56:22.105Z,25.74
2023-08-04T23:58:53.600Z,25.70
